sensor_id;sensor_type;location;lat;lon;timestamp;temperature;humidity
3053;DHT22;1536;51.098;6.414;2023-04-15T00:01:09;9.60;99.90
3053;DHT22;1536;51.098;6.414;2023-04-15T00:03:37;9.50;99.90
3053;DHT22;1536;51.098;6.414;2023-04-15T00:06:04;9.50;99.90
3053;DHT22;1536;51.098;6.414;2023-04-15T00:08:32;9.50;99.90
3053;DHT22;1536;51.098;6.414;2023-04-15T00:10:59;9.50;99.90
3053;DHT22;1536;51.098;6.414;2023-04-15T00:13:30;9.50;99.90
3053;DHT22;1536;51.098;6.414;2023-04-15T00:15:57;9.50;99.90
3053;DHT22;1536;51.098;6.414;2023-04-15T00:18:24;9.50;99.90
3053;DHT22;1536;51.098;6.414;2023-04-15T00:20:50;9.50;99.90
3053;DHT22;1536;51.098;6.414;2023-04-15T00:23:20;9.50;99.90
3053;DHT22;1536;51.098;6.414;2023-04-15T00:25:48;9.60;99.90
3053;DHT22;1536;51.098;6.414;2023-04-15T00:28:15;9.60;99.90
3053;DHT22;1536;51.098;6.414;2023-04-15T00:30:42;9.60;99.90
3053;DHT22;1536;51.098;6.414;2023-04-15T00:33:12;9.60;99.90
3053;DHT22;1536;51.098;6.414;2023-04-15T00:35:38;9.60;99.90
3053;DHT22;1536;51.098;6.414;2023-04-15T00:38:06;9.60;99.90
3053;DHT22;1536;51.098;6.414;2023-04-15T00:40:36;9.60;99.90
3053;DHT22;1536;51.098;6.414;2023-04-15T00:43:04;9.60;99.90
3053;DHT22;1536;51.098;6.414;2023-04-15T00:45:31;9.70;99.90
3053;DHT22;1536;51.098;6.414;2023-04-15T00:47:58;9.70;99.90
3053;DHT22;1536;51.098;6.414;2023-04-15T00:50:25;9.70;99.90
3053;DHT22;1536;51.098;6.414;2023-04-15T00:52:52;9.70;99.90
3053;DHT22;1536;51.098;6.414;2023-04-15T00:55:19;9.70;99.90
3053;DHT22;1536;51.098;6.414;2023-04-15T00:57:45;9.70;99.90
3053;DHT22;1536;51.098;6.414;2023-04-15T01:00:14;9.70;99.90
3053;DHT22;1536;51.098;6.414;2023-04-15T01:02:41;9.70;99.90
3053;DHT22;1536;51.098;6.414;2023-04-15T01:05:08;9.70;99.90
3053;DHT22;1536;51.098;6.414;2023-04-15T01:07:36;9.70;99.90
3053;DHT22;1536;51.098;6.414;2023-04-15T01:10:03;9.70;99.90
3053;DHT22;1536;51.098;6.414;2023-04-15T01:12:31;9.70;99.90
3053;DHT22;1536;51.098;6.414;2023-04-15T01:14:59;9.70;99.90
3053;DHT22;1536;51.098;6.414;2023-04-15T01:17:27;9.60;99.90
3053;DHT22;1536;51.098;6.414;2023-04-15T01:19:55;9.50;99.90
3053;DHT22;1536;51.098;6.414;2023-04-15T01:22:23;9.50;99.90
3053;DHT22;1536;51.098;6.414;2023-04-15T01:24:54;9.40;99.90
3053;DHT22;1536;51.098;6.414;2023-04-15T01:27:25;9.30;99.90
3053;DHT22;1536;51.098;6.414;2023-04-15T01:29:52;9.30;99.90
3053;DHT22;1536;51.098;6.414;2023-04-15T01:32:19;9.20;99.90
3053;DHT22;1536;51.098;6.414;2023-04-15T01:34:45;9.10;99.90
3053;DHT22;1536;51.098;6.414;2023-04-15T01:37:12;9.00;99.90
3053;DHT22;1536;51.098;6.414;2023-04-15T01:39:39;9.00;99.90
3053;DHT22;1536;51.098;6.414;2023-04-15T01:42:06;8.90;99.90
3053;DHT22;1536;51.098;6.414;2023-04-15T01:44:34;8.90;99.90
3053;DHT22;1536;51.098;6.414;2023-04-15T01:47:00;8.80;99.90
3053;DHT22;1536;51.098;6.414;2023-04-15T01:49:27;8.80;99.90
3053;DHT22;1536;51.098;6.414;2023-04-15T01:51:55;8.70;99.90
3053;DHT22;1536;51.098;6.414;2023-04-15T01:54:22;8.70;99.90
3053;DHT22;1536;51.098;6.414;2023-04-15T01:56:49;8.70;99.90
3053;DHT22;1536;51.098;6.414;2023-04-15T01:59:16;8.70;99.90
3053;DHT22;1536;51.098;6.414;2023-04-15T02:01:44;8.70;99.90
3053;DHT22;1536;51.098;6.414;2023-04-15T02:04:11;8.70;99.90
3053;DHT22;1536;51.098;6.414;2023-04-15T02:06:41;8.60;99.90
3053;DHT22;1536;51.098;6.414;2023-04-15T02:09:08;8.60;99.90
3053;DHT22;1536;51.098;6.414;2023-04-15T02:11:35;8.50;99.90
3053;DHT22;1536;51.098;6.414;2023-04-15T02:14:03;8.50;99.90
3053;DHT22;1536;51.098;6.414;2023-04-15T02:16:31;8.40;99.90
3053;DHT22;1536;51.098;6.414;2023-04-15T02:19:00;8.40;99.90
3053;DHT22;1536;51.098;6.414;2023-04-15T02:21:28;8.40;99.90
3053;DHT22;1536;51.098;6.414;2023-04-15T02:23:55;8.40;99.90
3053;DHT22;1536;51.098;6.414;2023-04-15T02:26:22;8.40;99.90
3053;DHT22;1536;51.098;6.414;2023-04-15T02:28:49;8.40;99.90
3053;DHT22;1536;51.098;6.414;2023-04-15T02:31:16;8.40;99.90
3053;DHT22;1536;51.098;6.414;2023-04-15T02:33:43;8.30;99.90
3053;DHT22;1536;51.098;6.414;2023-04-15T02:36:11;8.30;99.90
3053;DHT22;1536;51.098;6.414;2023-04-15T02:38:38;8.20;99.90
3053;DHT22;1536;51.098;6.414;2023-04-15T02:41:07;8.10;99.90
3053;DHT22;1536;51.098;6.414;2023-04-15T02:43:34;8.10;99.90
3053;DHT22;1536;51.098;6.414;2023-04-15T02:46:00;8.00;99.90
3053;DHT22;1536;51.098;6.414;2023-04-15T02:48:27;8.00;99.90
3053;DHT22;1536;51.098;6.414;2023-04-15T02:51:14;7.90;99.90
3053;DHT22;1536;51.098;6.414;2023-04-15T02:53:41;7.90;99.90
3053;DHT22;1536;51.098;6.414;2023-04-15T02:56:08;7.90;99.90
3053;DHT22;1536;51.098;6.414;2023-04-15T02:58:36;7.90;99.90
3053;DHT22;1536;51.098;6.414;2023-04-15T03:01:02;7.90;99.90
3053;DHT22;1536;51.098;6.414;2023-04-15T03:03:29;8.00;99.90
3053;DHT22;1536;51.098;6.414;2023-04-15T03:05:56;8.00;99.90
3053;DHT22;1536;51.098;6.414;2023-04-15T03:08:24;8.00;99.90
3053;DHT22;1536;51.098;6.414;2023-04-15T03:10:51;8.00;99.90
3053;DHT22;1536;51.098;6.414;2023-04-15T03:13:19;8.10;99.90
3053;DHT22;1536;51.098;6.414;2023-04-15T03:15:46;8.00;99.90
3053;DHT22;1536;51.098;6.414;2023-04-15T03:18:13;8.00;99.90
3053;DHT22;1536;51.098;6.414;2023-04-15T03:20:40;8.10;99.90
3053;DHT22;1536;51.098;6.414;2023-04-15T03:23:06;8.10;99.90
3053;DHT22;1536;51.098;6.414;2023-04-15T03:25:34;8.10;99.90
3053;DHT22;1536;51.098;6.414;2023-04-15T03:28:02;8.00;99.90
3053;DHT22;1536;51.098;6.414;2023-04-15T03:30:30;8.00;99.90
3053;DHT22;1536;51.098;6.414;2023-04-15T03:32:57;8.00;99.90
3053;DHT22;1536;51.098;6.414;2023-04-15T03:35:24;8.00;99.90
3053;DHT22;1536;51.098;6.414;2023-04-15T03:37:51;8.00;99.90
3053;DHT22;1536;51.098;6.414;2023-04-15T03:40:20;8.00;99.90
3053;DHT22;1536;51.098;6.414;2023-04-15T03:42:48;8.00;99.90
3053;DHT22;1536;51.098;6.414;2023-04-15T03:45:15;8.00;99.90
3053;DHT22;1536;51.098;6.414;2023-04-15T03:47:42;7.90;99.90
3053;DHT22;1536;51.098;6.414;2023-04-15T03:50:09;8.00;99.90
3053;DHT22;1536;51.098;6.414;2023-04-15T03:52:36;7.90;99.90
3053;DHT22;1536;51.098;6.414;2023-04-15T03:55:04;7.90;99.90
3053;DHT22;1536;51.098;6.414;2023-04-15T03:57:31;7.90;99.90
3053;DHT22;1536;51.098;6.414;2023-04-15T04:00:05;7.90;99.90
3053;DHT22;1536;51.098;6.414;2023-04-15T04:02:32;7.80;99.90
3053;DHT22;1536;51.098;6.414;2023-04-15T04:04:58;7.80;99.90
3053;DHT22;1536;51.098;6.414;2023-04-15T04:07:25;7.70;99.90
3053;DHT22;1536;51.098;6.414;2023-04-15T04:09:52;7.70;99.90
3053;DHT22;1536;51.098;6.414;2023-04-15T04:12:19;7.70;99.90
3053;DHT22;1536;51.098;6.414;2023-04-15T04:14:45;7.70;99.90
3053;DHT22;1536;51.098;6.414;2023-04-15T04:17:14;7.70;99.90
3053;DHT22;1536;51.098;6.414;2023-04-15T04:19:40;7.70;99.90
3053;DHT22;1536;51.098;6.414;2023-04-15T04:22:07;7.70;99.90
3053;DHT22;1536;51.098;6.414;2023-04-15T04:24:34;7.70;99.90
3053;DHT22;1536;51.098;6.414;2023-04-15T04:27:00;7.60;99.90
3053;DHT22;1536;51.098;6.414;2023-04-15T04:29:28;7.70;99.90
3053;DHT22;1536;51.098;6.414;2023-04-15T04:31:55;7.70;99.90
3053;DHT22;1536;51.098;6.414;2023-04-15T04:34:23;7.70;99.90
3053;DHT22;1536;51.098;6.414;2023-04-15T04:36:50;7.80;99.90
3053;DHT22;1536;51.098;6.414;2023-04-15T04:39:17;7.80;99.90
3053;DHT22;1536;51.098;6.414;2023-04-15T04:41:44;7.90;99.90
3053;DHT22;1536;51.098;6.414;2023-04-15T04:44:10;7.90;99.90
3053;DHT22;1536;51.098;6.414;2023-04-15T04:46:37;8.00;99.90
3053;DHT22;1536;51.098;6.414;2023-04-15T04:49:05;8.00;99.90
3053;DHT22;1536;51.098;6.414;2023-04-15T04:51:33;8.00;99.90
3053;DHT22;1536;51.098;6.414;2023-04-15T04:54:00;8.00;99.90
3053;DHT22;1536;51.098;6.414;2023-04-15T04:56:27;8.10;99.90
3053;DHT22;1536;51.098;6.414;2023-04-15T04:58:53;8.10;99.90
3053;DHT22;1536;51.098;6.414;2023-04-15T05:01:20;8.20;99.90
3053;DHT22;1536;51.098;6.414;2023-04-15T05:03:47;8.20;99.90
3053;DHT22;1536;51.098;6.414;2023-04-15T05:06:14;8.20;99.90
3053;DHT22;1536;51.098;6.414;2023-04-15T05:08:42;8.30;99.90
3053;DHT22;1536;51.098;6.414;2023-04-15T05:11:09;8.30;99.90
3053;DHT22;1536;51.098;6.414;2023-04-15T05:13:36;8.40;99.90
3053;DHT22;1536;51.098;6.414;2023-04-15T05:16:04;8.40;99.90
3053;DHT22;1536;51.098;6.414;2023-04-15T05:18:30;8.40;99.90
3053;DHT22;1536;51.098;6.414;2023-04-15T05:20:57;8.50;99.90
3053;DHT22;1536;51.098;6.414;2023-04-15T05:23:24;8.50;99.90
3053;DHT22;1536;51.098;6.414;2023-04-15T05:25:53;8.50;99.90
3053;DHT22;1536;51.098;6.414;2023-04-15T05:28:20;8.60;99.90
3053;DHT22;1536;51.098;6.414;2023-04-15T05:30:46;8.60;99.90
3053;DHT22;1536;51.098;6.414;2023-04-15T05:33:13;8.70;99.90
3053;DHT22;1536;51.098;6.414;2023-04-15T05:35:40;8.70;99.90
3053;DHT22;1536;51.098;6.414;2023-04-15T05:38:06;8.80;99.90
3053;DHT22;1536;51.098;6.414;2023-04-15T05:40:33;8.80;99.90
3053;DHT22;1536;51.098;6.414;2023-04-15T05:43:01;8.80;99.90
3053;DHT22;1536;51.098;6.414;2023-04-15T05:45:28;8.80;99.90
3053;DHT22;1536;51.098;6.414;2023-04-15T05:47:55;8.90;99.90
3053;DHT22;1536;51.098;6.414;2023-04-15T05:50:21;8.90;99.90
3053;DHT22;1536;51.098;6.414;2023-04-15T05:52:48;8.90;99.90
3053;DHT22;1536;51.098;6.414;2023-04-15T05:55:15;8.90;99.90
3053;DHT22;1536;51.098;6.414;2023-04-15T05:57:42;8.90;99.90
3053;DHT22;1536;51.098;6.414;2023-04-15T06:00:11;9.00;99.90
3053;DHT22;1536;51.098;6.414;2023-04-15T06:02:38;9.00;99.90
3053;DHT22;1536;51.098;6.414;2023-04-15T06:05:05;9.10;99.90
3053;DHT22;1536;51.098;6.414;2023-04-15T06:07:34;9.10;99.90
3053;DHT22;1536;51.098;6.414;2023-04-15T06:10:01;9.20;99.90
3053;DHT22;1536;51.098;6.414;2023-04-15T06:12:28;9.20;99.90
3053;DHT22;1536;51.098;6.414;2023-04-15T06:14:55;9.30;99.90
3053;DHT22;1536;51.098;6.414;2023-04-15T06:17:23;9.30;99.90
3053;DHT22;1536;51.098;6.414;2023-04-15T06:19:50;9.40;99.90
3053;DHT22;1536;51.098;6.414;2023-04-15T06:22:20;9.50;99.90
3053;DHT22;1536;51.098;6.414;2023-04-15T06:24:47;9.50;99.90
3053;DHT22;1536;51.098;6.414;2023-04-15T06:27:13;9.60;99.90
3053;DHT22;1536;51.098;6.414;2023-04-15T06:29:40;9.60;99.90
3053;DHT22;1536;51.098;6.414;2023-04-15T06:32:07;9.70;99.90
3053;DHT22;1536;51.098;6.414;2023-04-15T06:34:35;9.70;99.90
3053;DHT22;1536;51.098;6.414;2023-04-15T06:37:02;9.80;99.90
3053;DHT22;1536;51.098;6.414;2023-04-15T06:39:28;9.80;99.90
3053;DHT22;1536;51.098;6.414;2023-04-15T06:41:55;9.90;99.90
3053;DHT22;1536;51.098;6.414;2023-04-15T06:44:22;9.90;99.90
3053;DHT22;1536;51.098;6.414;2023-04-15T06:46:49;10.00;99.90
3053;DHT22;1536;51.098;6.414;2023-04-15T06:49:15;10.00;99.90
3053;DHT22;1536;51.098;6.414;2023-04-15T06:51:43;10.00;99.90
3053;DHT22;1536;51.098;6.414;2023-04-15T06:54:10;10.10;99.90
3053;DHT22;1536;51.098;6.414;2023-04-15T06:56:37;10.10;99.90
3053;DHT22;1536;51.098;6.414;2023-04-15T06:59:04;10.20;99.90
3053;DHT22;1536;51.098;6.414;2023-04-15T07:01:31;10.20;99.90
3053;DHT22;1536;51.098;6.414;2023-04-15T07:03:57;10.20;99.90
3053;DHT22;1536;51.098;6.414;2023-04-15T07:06:24;10.20;99.90
3053;DHT22;1536;51.098;6.414;2023-04-15T07:08:53;10.30;99.90
3053;DHT22;1536;51.098;6.414;2023-04-15T07:11:20;10.30;99.90
3053;DHT22;1536;51.098;6.414;2023-04-15T07:13:47;10.30;99.90
3053;DHT22;1536;51.098;6.414;2023-04-15T07:16:13;10.40;99.90
3053;DHT22;1536;51.098;6.414;2023-04-15T07:18:40;10.50;99.90
3053;DHT22;1536;51.098;6.414;2023-04-15T07:21:08;10.50;99.90
3053;DHT22;1536;51.098;6.414;2023-04-15T07:23:34;10.60;99.90
3053;DHT22;1536;51.098;6.414;2023-04-15T07:26:03;10.60;99.90
3053;DHT22;1536;51.098;6.414;2023-04-15T07:28:29;10.70;99.90
3053;DHT22;1536;51.098;6.414;2023-04-15T07:30:56;10.80;99.90
3053;DHT22;1536;51.098;6.414;2023-04-15T07:33:23;10.90;99.90
3053;DHT22;1536;51.098;6.414;2023-04-15T07:35:49;10.90;99.90
3053;DHT22;1536;51.098;6.414;2023-04-15T07:38:16;11.00;99.90
3053;DHT22;1536;51.098;6.414;2023-04-15T07:40:43;11.10;99.90
3053;DHT22;1536;51.098;6.414;2023-04-15T07:43:11;11.20;99.90
3053;DHT22;1536;51.098;6.414;2023-04-15T07:45:38;11.30;99.90
3053;DHT22;1536;51.098;6.414;2023-04-15T07:48:05;11.40;99.90
3053;DHT22;1536;51.098;6.414;2023-04-15T07:50:32;11.40;99.90
3053;DHT22;1536;51.098;6.414;2023-04-15T07:52:59;11.40;99.90
3053;DHT22;1536;51.098;6.414;2023-04-15T07:55:26;11.50;99.90
3053;DHT22;1536;51.098;6.414;2023-04-15T07:57:55;11.50;99.90
3053;DHT22;1536;51.098;6.414;2023-04-15T08:00:23;11.60;99.90
3053;DHT22;1536;51.098;6.414;2023-04-15T08:02:51;11.60;99.90
3053;DHT22;1536;51.098;6.414;2023-04-15T08:05:18;11.70;99.90
3053;DHT22;1536;51.098;6.414;2023-04-15T08:07:45;11.80;99.90
3053;DHT22;1536;51.098;6.414;2023-04-15T08:10:13;11.90;99.90
3053;DHT22;1536;51.098;6.414;2023-04-15T08:12:40;12.00;99.90
3053;DHT22;1536;51.098;6.414;2023-04-15T08:15:08;12.00;99.90
3053;DHT22;1536;51.098;6.414;2023-04-15T08:17:36;12.00;99.90
3053;DHT22;1536;51.098;6.414;2023-04-15T08:20:03;12.00;99.90
3053;DHT22;1536;51.098;6.414;2023-04-15T08:22:31;12.00;99.90
3053;DHT22;1536;51.098;6.414;2023-04-15T08:24:57;12.10;99.90
3053;DHT22;1536;51.098;6.414;2023-04-15T08:27:24;12.10;99.90
3053;DHT22;1536;51.098;6.414;2023-04-15T08:29:51;12.20;99.90
3053;DHT22;1536;51.098;6.414;2023-04-15T08:32:18;12.20;99.90
3053;DHT22;1536;51.098;6.414;2023-04-15T08:34:47;12.30;99.90
3053;DHT22;1536;51.098;6.414;2023-04-15T08:37:13;12.30;99.90
3053;DHT22;1536;51.098;6.414;2023-04-15T08:39:40;12.30;99.90
3053;DHT22;1536;51.098;6.414;2023-04-15T08:42:11;12.40;99.90
3053;DHT22;1536;51.098;6.414;2023-04-15T08:44:42;12.40;99.90
3053;DHT22;1536;51.098;6.414;2023-04-15T08:47:12;12.50;99.90
3053;DHT22;1536;51.098;6.414;2023-04-15T08:49:39;12.50;99.90
3053;DHT22;1536;51.098;6.414;2023-04-15T08:52:09;12.60;99.90
3053;DHT22;1536;51.098;6.414;2023-04-15T08:54:37;12.70;99.90
3053;DHT22;1536;51.098;6.414;2023-04-15T08:57:03;12.80;99.90
3053;DHT22;1536;51.098;6.414;2023-04-15T08:59:30;12.80;99.90
3053;DHT22;1536;51.098;6.414;2023-04-15T09:01:57;12.90;99.90
3053;DHT22;1536;51.098;6.414;2023-04-15T09:04:24;13.00;99.90
3053;DHT22;1536;51.098;6.414;2023-04-15T09:06:51;13.10;99.90
3053;DHT22;1536;51.098;6.414;2023-04-15T09:09:19;13.10;99.90
3053;DHT22;1536;51.098;6.414;2023-04-15T09:11:47;13.20;99.90
3053;DHT22;1536;51.098;6.414;2023-04-15T09:14:14;13.30;99.90
3053;DHT22;1536;51.098;6.414;2023-04-15T09:16:58;13.30;99.90
3053;DHT22;1536;51.098;6.414;2023-04-15T09:19:25;13.40;99.90
3053;DHT22;1536;51.098;6.414;2023-04-15T09:21:53;13.50;99.90
3053;DHT22;1536;51.098;6.414;2023-04-15T09:24:22;13.50;99.90
3053;DHT22;1536;51.098;6.414;2023-04-15T09:26:52;13.60;99.90
3053;DHT22;1536;51.098;6.414;2023-04-15T09:29:20;13.70;99.90
3053;DHT22;1536;51.098;6.414;2023-04-15T09:31:49;13.70;99.90
3053;DHT22;1536;51.098;6.414;2023-04-15T09:34:17;13.70;99.90
3053;DHT22;1536;51.098;6.414;2023-04-15T09:36:54;13.70;99.90
3053;DHT22;1536;51.098;6.414;2023-04-15T09:39:23;13.70;99.90
3053;DHT22;1536;51.098;6.414;2023-04-15T09:42:04;13.70;99.90
3053;DHT22;1536;51.098;6.414;2023-04-15T09:44:32;13.80;99.90
3053;DHT22;1536;51.098;6.414;2023-04-15T09:46:58;13.80;99.90
3053;DHT22;1536;51.098;6.414;2023-04-15T09:49:26;13.80;99.90
3053;DHT22;1536;51.098;6.414;2023-04-15T09:51:57;13.80;99.90
3053;DHT22;1536;51.098;6.414;2023-04-15T09:54:35;13.80;99.90
3053;DHT22;1536;51.098;6.414;2023-04-15T09:57:06;13.80;99.90
3053;DHT22;1536;51.098;6.414;2023-04-15T09:59:32;13.80;99.90
3053;DHT22;1536;51.098;6.414;2023-04-15T10:02:01;13.80;99.90
3053;DHT22;1536;51.098;6.414;2023-04-15T10:04:30;13.90;99.90
3053;DHT22;1536;51.098;6.414;2023-04-15T10:06:58;14.00;99.90
3053;DHT22;1536;51.098;6.414;2023-04-15T10:09:28;14.10;99.90
3053;DHT22;1536;51.098;6.414;2023-04-15T10:11:56;14.10;99.90
3053;DHT22;1536;51.098;6.414;2023-04-15T10:14:23;14.20;99.90
3053;DHT22;1536;51.098;6.414;2023-04-15T10:16:52;14.20;99.90
3053;DHT22;1536;51.098;6.414;2023-04-15T10:19:24;14.20;99.90
3053;DHT22;1536;51.098;6.414;2023-04-15T10:21:53;14.10;99.90
3053;DHT22;1536;51.098;6.414;2023-04-15T10:24:22;14.10;99.90
3053;DHT22;1536;51.098;6.414;2023-04-15T10:26:51;14.10;99.90
3053;DHT22;1536;51.098;6.414;2023-04-15T10:29:18;14.10;99.90
3053;DHT22;1536;51.098;6.414;2023-04-15T10:31:46;14.20;99.90
3053;DHT22;1536;51.098;6.414;2023-04-15T10:34:13;14.20;99.90
3053;DHT22;1536;51.098;6.414;2023-04-15T10:36:40;14.20;99.90
3053;DHT22;1536;51.098;6.414;2023-04-15T10:39:38;14.20;99.90
3053;DHT22;1536;51.098;6.414;2023-04-15T10:42:07;14.20;99.90
3053;DHT22;1536;51.098;6.414;2023-04-15T10:44:35;14.30;99.90
3053;DHT22;1536;51.098;6.414;2023-04-15T10:47:08;14.20;99.90
3053;DHT22;1536;51.098;6.414;2023-04-15T10:49:43;14.20;99.90
3053;DHT22;1536;51.098;6.414;2023-04-15T10:52:10;14.20;99.90
3053;DHT22;1536;51.098;6.414;2023-04-15T10:54:37;14.30;99.90
3053;DHT22;1536;51.098;6.414;2023-04-15T10:57:15;14.40;99.90
3053;DHT22;1536;51.098;6.414;2023-04-15T11:00:03;14.60;99.90
3053;DHT22;1536;51.098;6.414;2023-04-15T11:02:40;14.70;99.90
3053;DHT22;1536;51.098;6.414;2023-04-15T11:05:08;14.80;99.90
3053;DHT22;1536;51.098;6.414;2023-04-15T11:07:38;14.80;99.90
3053;DHT22;1536;51.098;6.414;2023-04-15T11:13:31;14.90;99.90
3053;DHT22;1536;51.098;6.414;2023-04-15T11:15:59;14.90;99.90
3053;DHT22;1536;51.098;6.414;2023-04-15T11:18:28;14.90;99.90
3053;DHT22;1536;51.098;6.414;2023-04-15T11:20:57;14.90;99.90
3053;DHT22;1536;51.098;6.414;2023-04-15T11:23:30;14.90;99.90
3053;DHT22;1536;51.098;6.414;2023-04-15T11:25:57;14.90;99.90
3053;DHT22;1536;51.098;6.414;2023-04-15T11:28:27;14.80;99.90
3053;DHT22;1536;51.098;6.414;2023-04-15T11:30:54;14.80;99.90
3053;DHT22;1536;51.098;6.414;2023-04-15T11:33:22;14.80;99.90
3053;DHT22;1536;51.098;6.414;2023-04-15T11:35:49;14.80;99.90
3053;DHT22;1536;51.098;6.414;2023-04-15T11:38:16;14.80;99.90
3053;DHT22;1536;51.098;6.414;2023-04-15T11:40:43;14.80;99.90
3053;DHT22;1536;51.098;6.414;2023-04-15T11:43:12;14.90;99.90
3053;DHT22;1536;51.098;6.414;2023-04-15T11:45:49;14.80;99.90
3053;DHT22;1536;51.098;6.414;2023-04-15T11:48:18;14.80;99.90
3053;DHT22;1536;51.098;6.414;2023-04-15T11:50:44;14.90;99.90
3053;DHT22;1536;51.098;6.414;2023-04-15T11:53:12;14.90;99.90
3053;DHT22;1536;51.098;6.414;2023-04-15T11:55:43;15.00;99.90
3053;DHT22;1536;51.098;6.414;2023-04-15T11:58:12;14.90;99.90
3053;DHT22;1536;51.098;6.414;2023-04-15T12:00:40;14.90;99.90
3053;DHT22;1536;51.098;6.414;2023-04-15T12:03:23;14.90;99.90
3053;DHT22;1536;51.098;6.414;2023-04-15T12:06:12;14.80;99.90
3053;DHT22;1536;51.098;6.414;2023-04-15T12:09:08;14.80;99.90
3053;DHT22;1536;51.098;6.414;2023-04-15T12:11:38;14.80;99.90
3053;DHT22;1536;51.098;6.414;2023-04-15T12:14:08;14.80;99.90
3053;DHT22;1536;51.098;6.414;2023-04-15T12:16:38;14.80;99.90
3053;DHT22;1536;51.098;6.414;2023-04-15T12:19:09;14.80;99.90
3053;DHT22;1536;51.098;6.414;2023-04-15T12:21:37;14.80;99.90
3053;DHT22;1536;51.098;6.414;2023-04-15T12:24:06;14.80;99.90
3053;DHT22;1536;51.098;6.414;2023-04-15T12:26:35;14.80;99.90
3053;DHT22;1536;51.098;6.414;2023-04-15T12:29:03;14.80;99.90
3053;DHT22;1536;51.098;6.414;2023-04-15T12:31:31;14.80;99.90
3053;DHT22;1536;51.098;6.414;2023-04-15T12:33:58;14.80;99.90
3053;DHT22;1536;51.098;6.414;2023-04-15T12:36:27;14.80;99.90
3053;DHT22;1536;51.098;6.414;2023-04-15T12:38:54;14.80;99.90
3053;DHT22;1536;51.098;6.414;2023-04-15T12:41:21;14.70;99.90
3053;DHT22;1536;51.098;6.414;2023-04-15T12:43:49;14.70;99.90
3053;DHT22;1536;51.098;6.414;2023-04-15T12:46:15;14.60;99.90
3053;DHT22;1536;51.098;6.414;2023-04-15T12:48:43;14.50;99.90
3053;DHT22;1536;51.098;6.414;2023-04-15T12:51:10;14.50;99.90
3053;DHT22;1536;51.098;6.414;2023-04-15T12:53:38;14.50;99.90
3053;DHT22;1536;51.098;6.414;2023-04-15T12:56:05;14.50;99.90
3053;DHT22;1536;51.098;6.414;2023-04-15T12:58:32;14.50;99.90
3053;DHT22;1536;51.098;6.414;2023-04-15T13:00:58;14.60;99.90
3053;DHT22;1536;51.098;6.414;2023-04-15T13:03:25;14.70;99.90
3053;DHT22;1536;51.098;6.414;2023-04-15T13:05:52;14.70;99.90
3053;DHT22;1536;51.098;6.414;2023-04-15T13:08:19;14.70;99.90
3053;DHT22;1536;51.098;6.414;2023-04-15T13:10:47;14.80;99.90
3053;DHT22;1536;51.098;6.414;2023-04-15T13:13:14;14.80;99.90
3053;DHT22;1536;51.098;6.414;2023-04-15T13:15:41;14.80;99.90
3053;DHT22;1536;51.098;6.414;2023-04-15T13:18:10;14.70;99.90
3053;DHT22;1536;51.098;6.414;2023-04-15T13:20:37;14.70;99.90
3053;DHT22;1536;51.098;6.414;2023-04-15T13:23:04;14.60;99.90
3053;DHT22;1536;51.098;6.414;2023-04-15T13:25:31;14.50;99.90
3053;DHT22;1536;51.098;6.414;2023-04-15T13:27:59;14.50;99.90
3053;DHT22;1536;51.098;6.414;2023-04-15T13:30:26;14.40;99.90
3053;DHT22;1536;51.098;6.414;2023-04-15T13:32:53;14.30;99.90
3053;DHT22;1536;51.098;6.414;2023-04-15T13:35:20;14.20;99.90
3053;DHT22;1536;51.098;6.414;2023-04-15T13:37:47;14.10;99.90
3053;DHT22;1536;51.098;6.414;2023-04-15T13:40:14;14.10;99.90
3053;DHT22;1536;51.098;6.414;2023-04-15T13:42:41;14.10;99.90
3053;DHT22;1536;51.098;6.414;2023-04-15T13:45:10;14.00;99.90
3053;DHT22;1536;51.098;6.414;2023-04-15T13:47:37;14.00;99.90
3053;DHT22;1536;51.098;6.414;2023-04-15T13:50:04;13.90;99.90
3053;DHT22;1536;51.098;6.414;2023-04-15T13:52:31;13.90;99.90
3053;DHT22;1536;51.098;6.414;2023-04-15T13:54:58;13.90;99.90
3053;DHT22;1536;51.098;6.414;2023-04-15T13:57:25;13.90;99.90
3053;DHT22;1536;51.098;6.414;2023-04-15T13:59:51;13.90;99.90
3053;DHT22;1536;51.098;6.414;2023-04-15T14:02:20;13.90;99.90
3053;DHT22;1536;51.098;6.414;2023-04-15T14:04:48;13.90;99.90
3053;DHT22;1536;51.098;6.414;2023-04-15T14:07:15;13.90;99.90
3053;DHT22;1536;51.098;6.414;2023-04-15T14:09:42;13.90;99.90
3053;DHT22;1536;51.098;6.414;2023-04-15T14:12:09;13.90;99.90
3053;DHT22;1536;51.098;6.414;2023-04-15T14:14:35;14.00;99.90
3053;DHT22;1536;51.098;6.414;2023-04-15T14:17:02;13.90;99.90
3053;DHT22;1536;51.098;6.414;2023-04-15T14:19:31;13.90;99.90
3053;DHT22;1536;51.098;6.414;2023-04-15T14:21:59;13.90;99.90
3053;DHT22;1536;51.098;6.414;2023-04-15T14:24:26;13.90;99.90
3053;DHT22;1536;51.098;6.414;2023-04-15T14:26:52;13.90;99.90
3053;DHT22;1536;51.098;6.414;2023-04-15T14:29:19;13.90;99.90
3053;DHT22;1536;51.098;6.414;2023-04-15T14:31:46;13.90;99.90
3053;DHT22;1536;51.098;6.414;2023-04-15T14:34:13;13.90;99.90
3053;DHT22;1536;51.098;6.414;2023-04-15T14:36:41;13.90;99.90
3053;DHT22;1536;51.098;6.414;2023-04-15T14:39:09;13.90;99.90
3053;DHT22;1536;51.098;6.414;2023-04-15T14:41:36;13.90;99.90
3053;DHT22;1536;51.098;6.414;2023-04-15T14:44:03;13.90;99.90
3053;DHT22;1536;51.098;6.414;2023-04-15T14:46:30;13.80;99.90
3053;DHT22;1536;51.098;6.414;2023-04-15T14:48:57;13.80;99.90
3053;DHT22;1536;51.098;6.414;2023-04-15T14:51:24;13.70;99.90
3053;DHT22;1536;51.098;6.414;2023-04-15T14:53:52;13.70;99.90
3053;DHT22;1536;51.098;6.414;2023-04-15T14:56:19;13.70;99.90
3053;DHT22;1536;51.098;6.414;2023-04-15T14:58:46;13.60;99.90
3053;DHT22;1536;51.098;6.414;2023-04-15T15:01:14;13.60;99.90
3053;DHT22;1536;51.098;6.414;2023-04-15T15:03:40;13.50;99.90
3053;DHT22;1536;51.098;6.414;2023-04-15T15:06:07;13.50;99.90
3053;DHT22;1536;51.098;6.414;2023-04-15T15:08:34;13.60;99.90
3053;DHT22;1536;51.098;6.414;2023-04-15T15:11:02;13.70;99.90
3053;DHT22;1536;51.098;6.414;2023-04-15T15:13:29;13.80;99.90
3053;DHT22;1536;51.098;6.414;2023-04-15T15:15:56;13.80;99.90
3053;DHT22;1536;51.098;6.414;2023-04-15T15:18:23;13.90;99.90
3053;DHT22;1536;51.098;6.414;2023-04-15T15:20:50;14.00;99.90
3053;DHT22;1536;51.098;6.414;2023-04-15T15:23:18;14.00;99.90
3053;DHT22;1536;51.098;6.414;2023-04-15T15:25:45;14.00;99.90
3053;DHT22;1536;51.098;6.414;2023-04-15T15:28:13;14.00;99.90
3053;DHT22;1536;51.098;6.414;2023-04-15T15:30:40;14.00;99.90
3053;DHT22;1536;51.098;6.414;2023-04-15T15:33:07;14.00;99.90
3053;DHT22;1536;51.098;6.414;2023-04-15T15:35:33;14.10;99.90
3053;DHT22;1536;51.098;6.414;2023-04-15T15:38:00;14.10;99.90
3053;DHT22;1536;51.098;6.414;2023-04-15T15:40:27;14.10;99.90
3053;DHT22;1536;51.098;6.414;2023-04-15T15:42:53;14.20;99.90
3053;DHT22;1536;51.098;6.414;2023-04-15T15:45:21;14.20;99.90
3053;DHT22;1536;51.098;6.414;2023-04-15T15:47:48;14.20;99.90
3053;DHT22;1536;51.098;6.414;2023-04-15T15:50:15;14.20;99.90
3053;DHT22;1536;51.098;6.414;2023-04-15T15:52:42;14.20;99.90
3053;DHT22;1536;51.098;6.414;2023-04-15T15:55:09;14.20;99.90
3053;DHT22;1536;51.098;6.414;2023-04-15T15:57:35;14.20;99.90
3053;DHT22;1536;51.098;6.414;2023-04-15T16:00:02;14.20;99.90
3053;DHT22;1536;51.098;6.414;2023-04-15T16:02:31;14.20;99.90
3053;DHT22;1536;51.098;6.414;2023-04-15T16:04:58;14.20;99.90
3053;DHT22;1536;51.098;6.414;2023-04-15T16:07:24;14.10;99.90
3053;DHT22;1536;51.098;6.414;2023-04-15T16:09:51;14.10;99.90
3053;DHT22;1536;51.098;6.414;2023-04-15T16:12:18;14.10;99.90
3053;DHT22;1536;51.098;6.414;2023-04-15T16:14:45;14.10;99.90
3053;DHT22;1536;51.098;6.414;2023-04-15T16:17:12;14.10;99.90